createdAt,value
2018-01-25T00:01:56.458Z,1.83
2018-01-25T00:04:24.300Z,2.33
2018-01-25T00:06:52.037Z,1.63
2018-01-25T00:09:19.730Z,1.80
2018-01-25T00:11:47.491Z,1.77
2018-01-25T00:14:15.214Z,1.93
2018-01-25T00:16:42.915Z,1.70
2018-01-25T00:19:11.324Z,1.80
2018-01-25T00:21:39.394Z,2.13
2018-01-25T00:24:07.163Z,2.43
2018-01-25T00:26:34.865Z,1.67
2018-01-25T00:29:02.603Z,2.23
2018-01-25T00:31:30.335Z,1.67
2018-01-25T00:33:58.102Z,1.80
2018-01-25T00:36:25.794Z,1.50
2018-01-25T00:38:53.525Z,2.53
2018-01-25T00:41:21.260Z,2.17
2018-01-25T00:43:49.375Z,2.10
2018-01-25T00:46:17.069Z,1.90
2018-01-25T00:48:44.783Z,1.60
2018-01-25T00:51:12.581Z,1.83
2018-01-25T00:53:40.333Z,1.80
2018-01-25T00:56:08.046Z,2.10
2018-01-25T00:58:36.186Z,2.00
2018-01-25T01:01:03.929Z,1.87
2018-01-25T01:03:31.616Z,1.70
2018-01-25T01:05:59.591Z,1.63
2018-01-25T01:08:27.259Z,1.73
2018-01-25T01:10:54.940Z,1.80
2018-01-25T01:13:22.652Z,1.40
2018-01-25T01:15:50.390Z,1.97
2018-01-25T01:18:18.157Z,1.70
2018-01-25T01:20:46.267Z,1.70
2018-01-25T01:23:14.003Z,1.73
2018-01-25T01:25:42.106Z,2.07
2018-01-25T01:28:09.828Z,1.70
2018-01-25T01:30:37.566Z,2.50
2018-01-25T01:33:05.261Z,1.77
2018-01-25T01:35:32.947Z,2.40
2018-01-25T01:38:00.710Z,2.47
2018-01-25T01:40:28.441Z,2.47
2018-01-25T01:42:56.136Z,2.30
2018-01-25T01:45:23.871Z,2.63
2018-01-25T01:47:51.605Z,3.03
2018-01-25T01:50:19.307Z,2.97
2018-01-25T01:52:47.410Z,2.73
2018-01-25T01:55:15.584Z,3.43
2018-01-25T01:57:43.392Z,3.23
2018-01-25T02:00:11.163Z,3.30
2018-01-25T02:02:39.299Z,2.97
2018-01-25T02:05:06.987Z,2.83
2018-01-25T02:07:34.722Z,2.97
2018-01-25T02:10:02.431Z,3.30
2018-01-25T02:12:30.164Z,2.63
2018-01-25T02:14:58.171Z,3.10
2018-01-25T02:17:26.123Z,2.87
2018-01-25T02:19:53.903Z,3.67
2018-01-25T02:22:21.887Z,3.30
2018-01-25T02:24:49.614Z,3.70
2018-01-25T02:27:17.480Z,3.37
2018-01-25T02:29:45.251Z,3.70
2018-01-25T02:32:13.695Z,3.40
2018-01-25T02:34:41.438Z,4.47
2018-01-25T02:37:09.111Z,3.83
2018-01-25T02:39:38.814Z,3.70
2018-01-25T02:42:06.582Z,3.60
2018-01-25T02:44:35.085Z,4.17
2018-01-25T02:47:02.959Z,4.37
2018-01-25T02:49:30.841Z,3.87
2018-01-25T02:51:58.600Z,4.00
2018-01-25T02:54:26.629Z,4.90
2018-01-25T02:56:54.422Z,4.00
2018-01-25T02:59:22.124Z,4.50
2018-01-25T03:01:49.972Z,3.70
2018-01-25T03:04:17.655Z,4.53
2018-01-25T03:06:45.414Z,3.93
2018-01-25T03:09:13.166Z,3.70
2018-01-25T03:11:41.829Z,3.73
2018-01-25T03:14:09.638Z,4.20
2018-01-25T03:16:37.410Z,3.93
2018-01-25T03:19:06.078Z,3.70
2018-01-25T03:21:33.735Z,3.73
2018-01-25T03:24:02.558Z,3.67
2018-01-25T03:26:30.283Z,3.30
2018-01-25T03:28:57.996Z,4.07
2018-01-25T03:31:25.760Z,4.10
2018-01-25T03:33:53.483Z,4.40
2018-01-25T03:36:21.166Z,2.93
2018-01-25T03:38:48.904Z,3.70
2018-01-25T03:41:16.608Z,3.80
2018-01-25T03:43:44.354Z,3.30
2018-01-25T03:46:12.582Z,3.27
2018-01-25T03:48:40.336Z,4.50
2018-01-25T03:51:10.771Z,3.60
2018-01-25T03:53:38.759Z,3.80
2018-01-25T03:56:06.458Z,4.20
2018-01-25T03:58:34.130Z,4.90
2018-01-25T04:01:01.839Z,3.60
2018-01-25T04:03:29.605Z,3.80
2018-01-25T04:05:58.754Z,4.30
2018-01-25T04:08:26.436Z,4.20
2018-01-25T04:10:54.637Z,4.20
2018-01-25T04:13:23.085Z,4.37
2018-01-25T04:15:50.800Z,4.73
2018-01-25T04:18:18.588Z,4.90
2018-01-25T04:20:46.309Z,5.00
2018-01-25T04:23:14.017Z,4.50
2018-01-25T04:25:41.752Z,5.80
2018-01-25T04:28:09.900Z,4.57
2018-01-25T04:30:37.621Z,5.73
2018-01-25T04:33:05.372Z,5.20
2018-01-25T04:35:33.128Z,5.60
2018-01-25T04:38:00.935Z,6.30
2018-01-25T04:40:31.757Z,6.60
2018-01-25T04:42:59.901Z,6.63
2018-01-25T04:45:27.650Z,5.53
2018-01-25T04:47:55.394Z,7.43
2018-01-25T04:50:23.183Z,7.10
2018-01-25T04:52:51.064Z,6.73
2018-01-25T04:55:19.739Z,6.90
2018-01-25T04:57:47.563Z,7.73
2018-01-25T05:00:15.332Z,7.27
2018-01-25T05:02:43.123Z,7.50
2018-01-25T05:05:10.964Z,7.10
2018-01-25T05:07:38.660Z,6.90
2018-01-25T05:10:06.381Z,7.60
2018-01-25T05:12:34.975Z,7.90
2018-01-25T05:15:02.709Z,7.37
2018-01-25T05:17:32.916Z,6.47
2018-01-25T05:20:00.664Z,7.33
2018-01-25T05:22:28.428Z,7.37
2018-01-25T05:24:56.132Z,6.97
2018-01-25T05:27:23.829Z,7.50
2018-01-25T05:29:51.608Z,7.47
2018-01-25T05:32:19.364Z,7.47
2018-01-25T05:34:47.077Z,7.20
2018-01-25T05:37:14.867Z,7.33
2018-01-25T05:39:42.608Z,7.50
2018-01-25T05:42:10.567Z,7.47
2018-01-25T05:44:38.280Z,7.80
2018-01-25T05:47:06.024Z,7.10
2018-01-25T05:49:33.772Z,6.47
2018-01-25T05:52:01.482Z,7.40
2018-01-25T05:54:29.162Z,6.97
2018-01-25T05:56:56.907Z,6.83
2018-01-25T05:59:24.770Z,7.87
2018-01-25T06:01:52.503Z,8.80
2018-01-25T06:04:20.258Z,7.40
2018-01-25T06:06:48.058Z,7.80
2018-01-25T06:09:15.746Z,7.63
2018-01-25T06:11:43.449Z,7.90
2018-01-25T06:14:11.568Z,9.37
2018-01-25T06:16:39.257Z,8.00
2018-01-25T06:19:07.032Z,7.60
2018-01-25T06:21:35.481Z,9.20
2018-01-25T06:24:03.160Z,8.30
2018-01-25T06:26:30.920Z,8.77
2018-01-25T06:28:58.626Z,10.10
2018-01-25T06:31:26.327Z,9.63
2018-01-25T06:33:54.052Z,10.53
2018-01-25T06:36:21.780Z,10.73
2018-01-25T06:38:49.515Z,10.70
2018-01-25T06:41:17.332Z,10.00
2018-01-25T06:43:45.033Z,9.97
2018-01-25T06:46:12.701Z,11.57
2018-01-25T06:48:40.411Z,10.33
2018-01-25T06:51:08.157Z,11.30
2018-01-25T06:53:35.942Z,12.63
2018-01-25T06:56:04.281Z,11.77
2018-01-25T06:58:32.114Z,11.90
2018-01-25T07:00:59.885Z,12.60
2018-01-25T07:03:27.577Z,11.87
2018-01-25T07:05:55.258Z,12.50
2018-01-25T07:08:22.920Z,12.10
2018-01-25T07:10:50.687Z,11.87
2018-01-25T07:13:18.362Z,11.10
2018-01-25T07:15:46.084Z,10.83
2018-01-25T07:18:13.826Z,11.27
2018-01-25T07:20:41.520Z,12.20
2018-01-25T07:23:09.251Z,10.13
2018-01-25T07:25:36.954Z,9.90
2018-01-25T07:28:04.604Z,11.13
2018-01-25T07:30:32.767Z,11.30
2018-01-25T07:33:00.441Z,12.37
2018-01-25T07:35:28.313Z,10.73
2018-01-25T07:37:55.988Z,10.80
2018-01-25T07:40:23.620Z,11.63
2018-01-25T07:42:51.424Z,11.47
2018-01-25T07:45:19.082Z,10.73
2018-01-25T07:47:46.746Z,11.93
2018-01-25T07:50:14.464Z,10.90
2018-01-25T07:52:42.175Z,10.80
2018-01-25T07:55:09.899Z,10.70
2018-01-25T07:57:43.218Z,9.57
2018-01-25T08:00:10.919Z,13.57
2018-01-25T08:02:38.674Z,14.97
2018-01-25T08:05:06.345Z,13.87
2018-01-25T08:07:34.087Z,13.80
2018-01-25T08:10:01.750Z,13.60
2018-01-25T08:12:30.302Z,12.67
2018-01-25T08:14:57.994Z,11.67
2018-01-25T08:17:25.629Z,11.30
2018-01-25T08:19:53.700Z,11.53
2018-01-25T08:22:21.384Z,10.37
2018-01-25T08:24:49.054Z,10.50
2018-01-25T08:27:16.813Z,11.60
2018-01-25T08:29:44.578Z,10.97
2018-01-25T08:32:12.291Z,9.60
2018-01-25T08:34:39.924Z,9.57
2018-01-25T08:37:07.594Z,10.50
2018-01-25T08:39:35.315Z,10.50
2018-01-25T08:42:03.172Z,10.93
2018-01-25T08:44:30.852Z,9.90
2018-01-25T08:46:58.541Z,9.87
2018-01-25T08:49:26.198Z,10.27
2018-01-25T08:51:53.926Z,10.10
2018-01-25T08:54:21.605Z,10.30
2018-01-25T08:56:49.284Z,9.90
2018-01-25T08:59:16.970Z,9.50
2018-01-25T09:01:44.623Z,10.17
2018-01-25T09:04:12.305Z,9.60
2018-01-25T09:06:39.946Z,8.50
2018-01-25T09:09:07.595Z,9.50
2018-01-25T09:11:35.635Z,8.60
2018-01-25T09:14:03.308Z,9.37
2018-01-25T09:16:30.995Z,9.77
2018-01-25T09:18:59.037Z,8.50
2018-01-25T09:21:27.206Z,9.30
2018-01-25T09:23:54.859Z,9.60
2018-01-25T09:26:22.579Z,10.10
2018-01-25T09:28:50.619Z,8.13
2018-01-25T09:31:18.303Z,8.70
2018-01-25T09:33:46.051Z,9.83
2018-01-25T09:36:13.739Z,7.70
2018-01-25T09:38:41.404Z,9.00
2018-01-25T09:41:09.539Z,8.93
2018-01-25T09:43:37.716Z,10.17
2018-01-25T09:46:05.712Z,8.80
2018-01-25T09:48:33.367Z,9.20
2018-01-25T09:51:01.011Z,10.07
2018-01-25T09:53:28.664Z,9.23
2018-01-25T09:55:56.314Z,8.03
2018-01-25T09:58:24.235Z,7.70
2018-01-25T10:00:52.354Z,8.73
2018-01-25T10:03:20.444Z,10.10
2018-01-25T10:05:48.116Z,9.80
2018-01-25T10:08:15.772Z,8.87
2018-01-25T10:10:43.501Z,17.73
2018-01-25T10:13:11.140Z,34.40
2018-01-25T10:15:38.762Z,12.37
2018-01-25T10:18:06.434Z,11.10
2018-01-25T10:20:34.090Z,10.83
2018-01-25T10:23:02.145Z,8.97
2018-01-25T10:25:30.207Z,11.90
2018-01-25T10:27:57.876Z,9.93
2018-01-25T10:30:26.148Z,10.90
2018-01-25T10:32:53.803Z,9.27
2018-01-25T10:35:21.427Z,11.07
2018-01-25T10:37:49.115Z,10.67
2018-01-25T10:40:16.802Z,10.00
2018-01-25T10:42:44.490Z,10.63
2018-01-25T10:45:12.175Z,10.50
2018-01-25T10:47:39.812Z,11.03
2018-01-25T10:50:07.675Z,9.70
2018-01-25T10:52:35.312Z,10.40
2018-01-25T10:55:02.967Z,9.77
2018-01-25T10:57:30.651Z,11.07
2018-01-25T10:59:58.598Z,11.00
2018-01-25T11:02:26.312Z,10.40
2018-01-25T11:04:53.986Z,11.10
2018-01-25T11:07:21.922Z,9.00
2018-01-25T11:09:49.575Z,10.40
2018-01-25T11:12:17.289Z,9.27
2018-01-25T11:14:45.006Z,11.60
2018-01-25T11:17:12.694Z,10.90
2018-01-25T11:19:40.395Z,11.60
2018-01-25T11:22:08.170Z,11.10
2018-01-25T11:24:36.365Z,11.93
2018-01-25T11:27:04.435Z,12.10
2018-01-25T11:29:32.113Z,25.67
2018-01-25T11:31:59.806Z,16.30
2018-01-25T11:34:27.456Z,16.13
2018-01-25T11:36:55.173Z,14.93
2018-01-25T11:39:22.852Z,15.13
2018-01-25T11:41:50.509Z,15.07
2018-01-25T11:44:18.175Z,13.30
2018-01-25T11:46:45.844Z,14.77
2018-01-25T11:49:13.844Z,13.87
2018-01-25T11:51:41.540Z,16.17
2018-01-25T11:54:09.214Z,12.37
2018-01-25T11:56:36.925Z,12.30
2018-01-25T11:59:04.563Z,12.40
2018-01-25T12:01:32.317Z,12.00
2018-01-25T12:04:00.041Z,12.63
2018-01-25T12:06:27.711Z,12.20
2018-01-25T12:08:55.428Z,15.57
2018-01-25T12:11:23.094Z,12.53
2018-01-25T12:13:50.730Z,14.67
2018-01-25T12:16:18.451Z,11.97
2018-01-25T12:18:46.587Z,16.70
2018-01-25T12:21:14.262Z,13.23
2018-01-25T12:23:41.925Z,12.70
2018-01-25T12:26:09.526Z,13.70
2018-01-25T12:28:37.236Z,13.67
2018-01-25T12:31:04.839Z,18.47
2018-01-25T12:33:32.485Z,25.03
2018-01-25T12:36:00.509Z,22.47
2018-01-25T12:38:28.166Z,25.90
2018-01-25T12:40:55.843Z,17.63
2018-01-25T12:43:23.545Z,29.47
2018-01-25T12:45:51.255Z,19.67
2018-01-25T12:48:18.927Z,16.03
2018-01-25T12:50:46.599Z,39.50
2018-01-25T12:53:14.678Z,28.20
2018-01-25T12:55:42.410Z,24.70
2018-01-25T12:58:10.027Z,40.43
2018-01-25T13:00:37.684Z,31.03
2018-01-25T13:03:05.391Z,66.17
2018-01-25T13:05:33.076Z,35.20
2018-01-25T13:08:00.748Z,17.73
2018-01-25T13:10:28.412Z,19.20
2018-01-25T13:12:56.057Z,13.83
2018-01-25T13:15:23.772Z,12.90
2018-01-25T13:17:51.474Z,11.13
2018-01-25T13:20:19.155Z,12.37
2018-01-25T13:22:46.778Z,10.77
2018-01-25T13:25:14.461Z,12.23
2018-01-25T13:27:42.149Z,10.80
2018-01-25T13:30:09.805Z,11.50
2018-01-25T13:32:37.481Z,10.33
2018-01-25T13:35:05.435Z,10.43
2018-01-25T13:37:33.532Z,9.90
2018-01-25T13:40:01.291Z,10.03
2018-01-25T13:42:28.950Z,8.53
2018-01-25T13:44:56.685Z,9.80
2018-01-25T13:47:24.774Z,7.97
2018-01-25T13:49:52.463Z,9.03
2018-01-25T13:55:21.163Z,7.73
2018-01-25T13:57:48.822Z,8.13
2018-01-25T14:00:16.487Z,9.97
2018-01-25T14:02:44.158Z,9.90
2018-01-25T14:05:11.827Z,10.93
2018-01-25T14:07:39.544Z,9.40
2018-01-25T14:10:07.527Z,10.50
2018-01-25T14:12:35.192Z,9.60
2018-01-25T14:15:02.844Z,10.33
2018-01-25T14:17:30.823Z,37.87
2018-01-25T14:19:58.497Z,50.47
2018-01-25T14:22:26.185Z,26.40
2018-01-25T14:24:53.885Z,13.47
2018-01-25T14:27:21.610Z,13.63
2018-01-25T14:29:49.291Z,12.63
2018-01-25T14:32:17.198Z,13.80
2018-01-25T14:34:44.888Z,12.43
2018-01-25T14:37:12.886Z,13.93
2018-01-25T14:39:40.594Z,13.23
2018-01-25T14:42:08.240Z,13.40
2018-01-25T14:44:35.874Z,11.93
2018-01-25T14:47:03.597Z,12.40
2018-01-25T14:49:31.266Z,12.93
2018-01-25T14:51:58.922Z,11.33
2018-01-25T14:54:26.576Z,11.40
2018-01-25T14:56:54.185Z,11.90
2018-01-25T14:59:21.840Z,11.87
2018-01-25T15:01:49.500Z,14.07
2018-01-25T15:04:17.525Z,10.97
2018-01-25T15:06:45.715Z,10.20
2018-01-25T15:09:13.405Z,11.30
2018-01-25T15:11:41.085Z,10.37
2018-01-25T15:14:08.740Z,9.63
2018-01-25T15:16:36.409Z,10.00
2018-01-25T15:19:04.122Z,9.87
2018-01-25T15:21:31.842Z,10.50
2018-01-25T15:23:59.996Z,9.90
2018-01-25T15:26:28.040Z,9.33
2018-01-25T15:28:55.672Z,9.43
2018-01-25T15:31:23.760Z,9.07
2018-01-25T15:33:51.834Z,9.30
2018-01-25T15:36:19.982Z,10.03
2018-01-25T15:38:48.814Z,10.20
2018-01-25T15:41:19.259Z,11.77
2018-01-25T15:43:47.004Z,8.93
2018-01-25T15:46:14.673Z,9.93
2018-01-25T15:48:42.528Z,9.93
2018-01-25T15:51:10.200Z,9.87
2018-01-25T15:53:38.554Z,10.07
2018-01-25T15:56:06.568Z,14.57
2018-01-25T15:58:34.489Z,27.60
2018-01-25T16:01:05.037Z,20.27
2018-01-25T16:03:33.814Z,18.50
2018-01-25T16:06:01.463Z,23.53
2018-01-25T16:08:29.426Z,27.50
2018-01-25T16:10:57.045Z,23.40
2018-01-25T16:13:24.669Z,11.70
2018-01-25T16:15:52.348Z,12.50
2018-01-25T16:18:19.998Z,12.80
2018-01-25T16:20:47.691Z,12.10
2018-01-25T16:23:15.382Z,12.13
2018-01-25T16:25:43.035Z,19.43
2018-01-25T16:28:10.840Z,16.57
2018-01-25T16:30:38.424Z,12.40
2018-01-25T16:33:06.442Z,14.27
2018-01-25T16:35:34.391Z,15.67
2018-01-25T16:38:02.070Z,12.50
2018-01-25T16:40:29.876Z,12.20
2018-01-25T16:42:58.184Z,12.90
2018-01-25T16:45:26.038Z,12.43
2018-01-25T16:47:54.543Z,12.07
2018-01-25T16:50:22.242Z,10.73
2018-01-25T16:52:50.695Z,11.43
2018-01-25T16:55:18.348Z,12.57
2018-01-25T16:57:46.006Z,16.07
2018-01-25T17:00:13.631Z,13.23
2018-01-25T17:02:41.299Z,12.80
2018-01-25T17:05:08.935Z,12.00
2018-01-25T17:07:36.545Z,11.73
2018-01-25T17:10:04.240Z,12.13
2018-01-25T17:12:31.974Z,15.03
2018-01-25T17:14:59.658Z,11.30
2018-01-25T17:17:27.316Z,12.17
2018-01-25T17:19:54.926Z,12.87
2018-01-25T17:22:22.585Z,12.20
2018-01-25T17:24:50.254Z,14.57
2018-01-25T17:27:17.921Z,12.47
2018-01-25T17:29:45.577Z,12.70
2018-01-25T17:32:13.198Z,12.57
2018-01-25T17:34:40.857Z,11.23
2018-01-25T17:37:08.524Z,12.73
2018-01-25T17:39:36.162Z,13.00
2018-01-25T17:42:04.097Z,12.33
2018-01-25T17:44:32.749Z,12.07
2018-01-25T17:47:00.755Z,11.40
2018-01-25T17:49:29.625Z,11.80
2018-01-25T17:51:57.282Z,12.67
2018-01-25T17:54:25.285Z,12.77
2018-01-25T17:56:53.352Z,12.67
2018-01-25T17:59:21.044Z,12.97
2018-01-25T18:01:48.773Z,13.47
2018-01-25T18:04:16.751Z,13.97
2018-01-25T18:06:44.409Z,14.30
2018-01-25T18:09:12.485Z,12.30
2018-01-25T18:11:40.124Z,13.37
2018-01-25T18:14:07.751Z,15.00
2018-01-25T18:16:36.516Z,18.00
2018-01-25T18:19:04.220Z,18.50
2018-01-25T18:21:31.865Z,23.27
2018-01-25T18:23:59.497Z,30.10
2018-01-25T18:26:27.184Z,26.50
2018-01-25T18:28:56.571Z,38.33
2018-01-25T18:31:24.302Z,31.40
2018-01-25T18:33:52.107Z,25.87
2018-01-25T18:36:19.873Z,22.27
2018-01-25T18:38:47.660Z,19.87
2018-01-25T18:41:18.961Z,18.90
2018-01-25T18:43:49.303Z,26.50
2018-01-25T18:46:17.001Z,32.13
2018-01-25T18:48:44.754Z,23.43
2018-01-25T18:51:15.192Z,33.47
2018-01-25T18:53:42.964Z,25.80
2018-01-25T18:56:10.666Z,23.93
2018-01-25T18:58:38.386Z,31.37
2018-01-25T19:01:06.149Z,36.57
2018-01-25T19:03:34.261Z,47.87
2018-01-25T19:06:02.028Z,69.47
2018-01-25T19:08:29.703Z,39.10
2018-01-25T19:10:57.431Z,35.90
2018-01-25T19:13:25.168Z,33.33
2018-01-25T19:15:52.985Z,19.70
2018-01-25T19:18:20.660Z,17.37
2018-01-25T19:20:48.383Z,14.40
2018-01-25T19:23:16.197Z,14.87
2018-01-25T19:25:43.885Z,13.67
2018-01-25T19:28:11.917Z,14.43
2018-01-25T19:30:39.889Z,14.57
2018-01-25T19:33:07.650Z,13.47
2018-01-25T19:35:41.966Z,14.20
2018-01-25T19:38:10.252Z,13.50
2018-01-25T19:40:37.955Z,14.43
2018-01-25T19:43:06.873Z,15.10
2018-01-25T19:45:34.873Z,14.97
2018-01-25T19:48:02.554Z,13.90
2018-01-25T19:50:30.272Z,14.93
2018-01-25T19:52:58.003Z,15.23
2018-01-25T19:55:25.755Z,15.47
2018-01-25T19:57:53.524Z,13.20
2018-01-25T20:00:21.258Z,13.70
2018-01-25T20:02:49.058Z,14.13
2018-01-25T20:05:17.851Z,13.47
2018-01-25T20:07:45.660Z,13.67
2018-01-25T20:10:13.860Z,13.43
2018-01-25T20:12:41.516Z,12.03
2018-01-25T20:15:09.219Z,13.40
2018-01-25T20:17:37.248Z,13.37
2018-01-25T20:20:04.951Z,13.13
2018-01-25T20:22:32.666Z,14.50
2018-01-25T20:25:00.399Z,12.80
2018-01-25T20:27:28.122Z,14.30
2018-01-25T20:29:55.811Z,13.80
2018-01-25T20:32:23.562Z,15.20
2018-01-25T20:34:51.595Z,14.80
2018-01-25T20:37:19.424Z,14.47
2018-01-25T20:39:47.124Z,15.10
2018-01-25T20:42:15.220Z,13.07
2018-01-25T20:44:42.970Z,13.60
2018-01-25T20:47:10.642Z,14.93
2018-01-25T20:49:38.402Z,14.70
2018-01-25T20:52:06.072Z,14.03
2018-01-25T20:54:34.049Z,16.03
2018-01-25T20:57:01.790Z,16.00
2018-01-25T20:59:29.526Z,16.80
2018-01-25T21:01:57.593Z,14.83
2018-01-25T21:04:25.280Z,14.50
2018-01-25T21:06:53.259Z,15.53
2018-01-25T21:09:20.974Z,15.47
2018-01-25T21:11:48.657Z,13.80
2018-01-25T21:14:16.358Z,14.33
2018-01-25T21:16:43.998Z,15.43
2018-01-25T21:19:11.921Z,15.60
2018-01-25T21:21:39.543Z,14.00
2018-01-25T21:24:07.182Z,14.30
2018-01-25T21:26:34.896Z,13.73
2018-01-25T21:29:02.587Z,14.40
2018-01-25T21:31:30.947Z,13.47
2018-01-25T21:33:58.659Z,14.80
2018-01-25T21:36:26.381Z,15.20
2018-01-25T21:38:54.117Z,13.27
2018-01-25T21:41:21.828Z,15.40
2018-01-25T21:43:49.612Z,15.00
2018-01-25T21:46:17.322Z,14.70
2018-01-25T21:48:45.073Z,14.77
2018-01-25T21:51:13.330Z,14.37
2018-01-25T21:53:41.053Z,15.80
2018-01-25T21:56:08.771Z,15.23
2018-01-25T21:58:36.833Z,15.90
2018-01-25T22:01:04.589Z,16.77
2018-01-25T22:03:32.334Z,15.53
2018-01-25T22:06:00.289Z,17.80
2018-01-25T22:08:27.974Z,16.80
2018-01-25T22:10:55.668Z,16.70
2018-01-25T22:13:25.901Z,15.70
2018-01-25T22:15:54.519Z,15.43
2018-01-25T22:18:22.292Z,16.07
2018-01-25T22:20:50.057Z,15.10
2018-01-25T22:23:17.865Z,14.60
2018-01-25T22:25:45.600Z,15.27
2018-01-25T22:28:13.301Z,15.17
2018-01-25T22:30:41.050Z,16.00
2018-01-25T22:33:08.810Z,13.43
2018-01-25T22:35:36.565Z,16.10
2018-01-25T22:38:04.425Z,15.07
2018-01-25T22:40:32.142Z,14.57
2018-01-25T22:42:59.813Z,15.40
2018-01-25T22:45:27.542Z,15.50
2018-01-25T22:47:55.300Z,15.97
2018-01-25T22:50:22.977Z,16.13
2018-01-25T22:52:51.022Z,16.73
2018-01-25T22:55:18.676Z,16.90
2018-01-25T22:57:46.394Z,17.97
2018-01-25T23:00:25.846Z,17.07
2018-01-25T23:02:53.963Z,15.33
2018-01-25T23:05:21.945Z,18.40
2018-01-25T23:07:49.620Z,16.63
2018-01-25T23:10:17.562Z,17.43
2018-01-25T23:12:45.235Z,15.63
2018-01-25T23:15:12.900Z,15.13
2018-01-25T23:17:41.066Z,15.00
2018-01-25T23:20:08.777Z,15.67
2018-01-25T23:22:36.794Z,16.63
2018-01-25T23:25:04.576Z,13.63
2018-01-25T23:27:32.343Z,14.93
2018-01-25T23:30:00.109Z,17.23
2018-01-25T23:32:28.026Z,16.50
2018-01-25T23:34:55.918Z,16.00
2018-01-25T23:37:24.369Z,16.67
2018-01-25T23:39:52.112Z,17.37
2018-01-25T23:42:19.872Z,16.50
2018-01-25T23:44:47.641Z,15.40
2018-01-25T23:47:15.775Z,15.90
2018-01-25T23:49:43.558Z,15.73
2018-01-25T23:52:11.438Z,15.90
2018-01-25T23:54:39.196Z,16.23
2018-01-25T23:57:06.961Z,15.60
2018-01-25T23:59:34.661Z,15.93
